Aeroporto :
LOGIN :

Iscrizione | Disclaimer

   EN    FR    IT 

 










Sommario :    VFR   VFR Marginale   IFR   IFR Intensivo   IFR Molto Intensivo
Visibilità : 
Base nubi : 
>= 8 km
>= 3000ft
5 / 8 km
1000 / 3000 ft
1500m / 5 km
500 / 1000 ft
800 / 1500m
200 / 500 ft
< 800m
< 200 ft
Simboli :   Temporali  Nebbia  Neve Forte  Precipitazioni Forti  Vento > 20 kt
SIGMETs :   Varie  Temporali  Ghiacco  Turbolenza  Onda orograficha  Ceneri Vulcaniche






- Altitudine del aeroporto : 288 ft
- Codice IATA : BZZ


EGVN - RAF Brize Norton

ULTIMO METAR :
  • 041520Z 17010KT 9999 FEW048 15/03 Q1018 NOSIG RMK BLU BLU

METARs OBSOLETI :
  • 041450Z 18009KT 9999 FEW048 15/04 Q1018 NOSIG
  • 041420Z 18010KT 9999 SCT045 16/04 Q1018 NOSIG RMK BLU BLU
  • 041350Z 19010KT 9999 FEW045 16/04 Q1018 NOSIG RMK BLU BLU
  • 041320Z 18010KT 9999 SCT042 15/05 Q1019 NOSIG RMK BLU BLU
  • 041250Z 20009KT 9999 SCT033 14/04 Q1019 NOSIG RMK BLU BLU

TAF TAF EGVN
Valido dal 04 a 15 ore il 05 a 15 ore UTC


041329Z 0415/0515 18012KT 9999 FEW045



MetMap, La meteo Aeronautica in un colpo d'occhio ! - Copyright ORBIFLY Dicembre 2007 - Disclaimer

ORBIFLY MET'MAP TEAM :

Programmazione e sviluppo : Alexandra Zaïnal
Concezione : Baudouin d'Aumeries
Aiuto per la programmazione : Marc-Olivier Méhu
Supporto tecnico e logistico : Manuel Goepfert
Aiuto per la traduzione : Arnaldo La Scala

Contatto : metmap@orbifly.com




FONTI E CREDITI :

   NOAA